sensor_id;sensor_type;location;lat;lon;timestamp;P1;durP1;ratioP1;P2;durP2;ratioP2
18647;SDS011;9453;50.294;18.644;2024-03-23T05:02:04;27.23;;;12.40;;
18647;SDS011;9453;50.294;18.644;2024-03-23T05:04:30;25.33;;;13.27;;
18647;SDS011;9453;50.294;18.644;2024-03-23T05:06:57;23.83;;;12.70;;
18647;SDS011;9453;50.294;18.644;2024-03-23T05:09:24;30.73;;;13.63;;
18647;SDS011;9453;50.294;18.644;2024-03-23T05:11:55;25.03;;;13.10;;
18647;SDS011;9453;50.294;18.644;2024-03-23T05:14:21;26.47;;;12.40;;
18647;SDS011;9453;50.294;18.644;2024-03-23T05:16:47;21.43;;;11.93;;
18647;SDS011;9453;50.294;18.644;2024-03-23T05:19:16;31.47;;;14.73;;
18647;SDS011;9453;50.294;18.644;2024-03-23T05:21:42;30.63;;;14.80;;
18647;SDS011;9453;50.294;18.644;2024-03-23T05:24:09;30.27;;;14.70;;
18647;SDS011;9453;50.294;18.644;2024-03-23T05:26:35;33.10;;;14.37;;
18647;SDS011;9453;50.294;18.644;2024-03-23T05:29:02;32.57;;;15.17;;
18647;SDS011;9453;50.294;18.644;2024-03-23T05:31:28;29.93;;;13.63;;
18647;SDS011;9453;50.294;18.644;2024-03-23T05:33:56;23.57;;;12.70;;
18647;SDS011;9453;50.294;18.644;2024-03-23T05:36:24;25.90;;;12.87;;
18647;SDS011;9453;50.294;18.644;2024-03-23T05:38:50;26.20;;;12.23;;
18647;SDS011;9453;50.294;18.644;2024-03-23T05:41:16;23.73;;;11.50;;
18647;SDS011;9453;50.294;18.644;2024-03-23T05:43:43;24.23;;;10.53;;
18647;SDS011;9453;50.294;18.644;2024-03-23T05:46:09;18.53;;;9.40;;
18647;SDS011;9453;50.294;18.644;2024-03-23T05:48:36;18.40;;;9.40;;
18647;SDS011;9453;50.294;18.644;2024-03-23T05:51:03;24.13;;;11.30;;
18647;SDS011;9453;50.294;18.644;2024-03-23T05:53:31;19.97;;;9.10;;
18647;SDS011;9453;50.294;18.644;2024-03-23T05:56:02;21.67;;;10.20;;
18647;SDS011;9453;50.294;18.644;2024-03-23T05:58:29;16.70;;;8.47;;
18647;SDS011;9453;50.294;18.644;2024-03-23T06:00:59;18.57;;;9.70;;
18647;SDS011;9453;50.294;18.644;2024-03-23T06:03:26;17.63;;;9.20;;
18647;SDS011;9453;50.294;18.644;2024-03-23T06:05:53;20.00;;;9.70;;
18647;SDS011;9453;50.294;18.644;2024-03-23T06:08:20;16.90;;;8.63;;
18647;SDS011;9453;50.294;18.644;2024-03-23T06:10:48;18.13;;;8.87;;
18647;SDS011;9453;50.294;18.644;2024-03-23T06:13:16;15.80;;;8.10;;
18647;SDS011;9453;50.294;18.644;2024-03-23T06:15:43;16.03;;;8.03;;
18647;SDS011;9453;50.294;18.644;2024-03-23T06:18:10;15.90;;;8.77;;
18647;SDS011;9453;50.294;18.644;2024-03-23T06:20:37;16.50;;;8.60;;
18647;SDS011;9453;50.294;18.644;2024-03-23T06:23:03;17.67;;;8.77;;
18647;SDS011;9453;50.294;18.644;2024-03-23T06:25:30;16.57;;;8.13;;
18647;SDS011;9453;50.294;18.644;2024-03-23T06:27:57;17.60;;;8.37;;
18647;SDS011;9453;50.294;18.644;2024-03-23T06:30:28;19.93;;;9.27;;
18647;SDS011;9453;50.294;18.644;2024-03-23T06:32:54;15.37;;;8.40;;
18647;SDS011;9453;50.294;18.644;2024-03-23T06:35:21;20.30;;;9.57;;
18647;SDS011;9453;50.294;18.644;2024-03-23T06:37:47;18.93;;;9.60;;
18647;SDS011;9453;50.294;18.644;2024-03-23T06:40:14;16.20;;;8.27;;
18647;SDS011;9453;50.294;18.644;2024-03-23T06:42:40;15.70;;;8.30;;
18647;SDS011;9453;50.294;18.644;2024-03-23T06:45:09;15.67;;;7.40;;
18647;SDS011;9453;50.294;18.644;2024-03-23T06:47:35;16.47;;;7.43;;
18647;SDS011;9453;50.294;18.644;2024-03-23T06:50:02;16.03;;;7.53;;
18647;SDS011;9453;50.294;18.644;2024-03-23T06:52:29;12.07;;;6.63;;
18647;SDS011;9453;50.294;18.644;2024-03-23T06:54:56;18.33;;;7.33;;
18647;SDS011;9453;50.294;18.644;2024-03-23T06:57:22;16.47;;;8.10;;
18647;SDS011;9453;50.294;18.644;2024-03-23T06:59:49;20.63;;;8.83;;
18647;SDS011;9453;50.294;18.644;2024-03-23T07:02:16;16.57;;;8.27;;
18647;SDS011;9453;50.294;18.644;2024-03-23T07:04:43;16.63;;;7.80;;
18647;SDS011;9453;50.294;18.644;2024-03-23T07:07:09;14.00;;;7.03;;
18647;SDS011;9453;50.294;18.644;2024-03-23T07:09:36;15.23;;;7.73;;
18647;SDS011;9453;50.294;18.644;2024-03-23T07:12:03;13.38;;;7.47;;
18647;SDS011;9453;50.294;18.644;2024-03-23T07:14:30;15.57;;;7.32;;
18647;SDS011;9453;50.294;18.644;2024-03-23T07:16:56;16.98;;;8.15;;
18647;SDS011;9453;50.294;18.644;2024-03-23T07:19:24;17.67;;;9.15;;
18647;SDS011;9453;50.294;18.644;2024-03-23T07:21:50;15.15;;;7.68;;
18647;SDS011;9453;50.294;18.644;2024-03-23T07:24:17;11.93;;;6.35;;
18647;SDS011;9453;50.294;18.644;2024-03-23T07:26:43;9.73;;;5.37;;
18647;SDS011;9453;50.294;18.644;2024-03-23T07:29:10;13.25;;;5.80;;
18647;SDS011;9453;50.294;18.644;2024-03-23T07:31:36;14.80;;;6.30;;
18647;SDS011;9453;50.294;18.644;2024-03-23T07:34:03;10.43;;;5.65;;
18647;SDS011;9453;50.294;18.644;2024-03-23T07:36:32;10.90;;;5.53;;
18647;SDS011;9453;50.294;18.644;2024-03-23T07:38:59;11.40;;;5.50;;
18647;SDS011;9453;50.294;18.644;2024-03-23T07:41:25;12.15;;;6.20;;
18647;SDS011;9453;50.294;18.644;2024-03-23T07:43:53;11.13;;;5.57;;
18647;SDS011;9453;50.294;18.644;2024-03-23T07:46:20;13.45;;;5.35;;
18647;SDS011;9453;50.294;18.644;2024-03-23T07:48:47;11.15;;;5.55;;
18647;SDS011;9453;50.294;18.644;2024-03-23T07:51:15;13.55;;;4.90;;
18647;SDS011;9453;50.294;18.644;2024-03-23T07:53:45;9.35;;;5.25;;
18647;SDS011;9453;50.294;18.644;2024-03-23T07:56:14;9.20;;;5.20;;
18647;SDS011;9453;50.294;18.644;2024-03-23T07:58:41;11.50;;;5.55;;
18647;SDS011;9453;50.294;18.644;2024-03-23T08:01:09;9.95;;;5.60;;
18647;SDS011;9453;50.294;18.644;2024-03-23T08:03:36;12.25;;;5.03;;
18647;SDS011;9453;50.294;18.644;2024-03-23T08:06:07;10.48;;;5.00;;
18647;SDS011;9453;50.294;18.644;2024-03-23T08:08:33;9.85;;;4.45;;
18647;SDS011;9453;50.294;18.644;2024-03-23T08:11:02;10.18;;;4.85;;
18647;SDS011;9453;50.294;18.644;2024-03-23T08:13:28;11.63;;;4.78;;
18647;SDS011;9453;50.294;18.644;2024-03-23T08:15:56;8.80;;;4.43;;
18647;SDS011;9453;50.294;18.644;2024-03-23T08:18:22;10.30;;;5.32;;
18647;SDS011;9453;50.294;18.644;2024-03-23T08:20:55;9.93;;;4.88;;
18647;SDS011;9453;50.294;18.644;2024-03-23T08:23:22;9.00;;;4.88;;
18647;SDS011;9453;50.294;18.644;2024-03-23T08:25:49;9.82;;;5.07;;
18647;SDS011;9453;50.294;18.644;2024-03-23T08:28:16;11.73;;;5.53;;
18647;SDS011;9453;50.294;18.644;2024-03-23T08:30:43;11.50;;;5.05;;
18647;SDS011;9453;50.294;18.644;2024-03-23T08:33:11;11.60;;;5.50;;
18647;SDS011;9453;50.294;18.644;2024-03-23T08:35:38;8.68;;;4.63;;
18647;SDS011;9453;50.294;18.644;2024-03-23T08:38:04;11.32;;;5.63;;
18647;SDS011;9453;50.294;18.644;2024-03-23T08:40:31;12.35;;;5.32;;
18647;SDS011;9453;50.294;18.644;2024-03-23T08:42:57;15.60;;;6.50;;
18647;SDS011;9453;50.294;18.644;2024-03-23T08:45:25;13.23;;;5.75;;
18647;SDS011;9453;50.294;18.644;2024-03-23T08:47:51;16.40;;;5.45;;
18647;SDS011;9453;50.294;18.644;2024-03-23T08:50:18;11.43;;;5.13;;
18647;SDS011;9453;50.294;18.644;2024-03-23T08:52:44;9.88;;;4.88;;
18647;SDS011;9453;50.294;18.644;2024-03-23T08:55:11;14.40;;;5.50;;
18647;SDS011;9453;50.294;18.644;2024-03-23T08:57:37;10.45;;;4.97;;
18647;SDS011;9453;50.294;18.644;2024-03-23T09:00:04;9.60;;;4.53;;
18647;SDS011;9453;50.294;18.644;2024-03-23T09:02:35;7.57;;;4.88;;
18647;SDS011;9453;50.294;18.644;2024-03-23T09:05:02;11.00;;;5.00;;
18647;SDS011;9453;50.294;18.644;2024-03-23T09:07:29;7.97;;;3.85;;
18647;SDS011;9453;50.294;18.644;2024-03-23T09:09:56;8.05;;;3.80;;
18647;SDS011;9453;50.294;18.644;2024-03-23T09:12:22;9.15;;;4.20;;
18647;SDS011;9453;50.294;18.644;2024-03-23T09:14:49;8.70;;;4.18;;
18647;SDS011;9453;50.294;18.644;2024-03-23T09:17:15;9.77;;;3.97;;
18647;SDS011;9453;50.294;18.644;2024-03-23T09:19:44;9.52;;;4.57;;
18647;SDS011;9453;50.294;18.644;2024-03-23T09:22:10;9.90;;;4.93;;
18647;SDS011;9453;50.294;18.644;2024-03-23T09:24:38;8.90;;;4.18;;
18647;SDS011;9453;50.294;18.644;2024-03-23T09:27:04;10.50;;;4.78;;
18647;SDS011;9453;50.294;18.644;2024-03-23T09:29:31;8.95;;;4.80;;
18647;SDS011;9453;50.294;18.644;2024-03-23T09:31:57;9.73;;;4.22;;
18647;SDS011;9453;50.294;18.644;2024-03-23T09:34:24;8.30;;;4.15;;
18647;SDS011;9453;50.294;18.644;2024-03-23T09:36:52;11.05;;;4.68;;
18647;SDS011;9453;50.294;18.644;2024-03-23T09:39:19;8.57;;;4.93;;
18647;SDS011;9453;50.294;18.644;2024-03-23T09:41:45;11.65;;;4.70;;
18647;SDS011;9453;50.294;18.644;2024-03-23T09:44:12;9.73;;;4.55;;
18647;SDS011;9453;50.294;18.644;2024-03-23T09:46:38;8.57;;;5.15;;
18647;SDS011;9453;50.294;18.644;2024-03-23T09:49:05;10.18;;;4.85;;
18647;SDS011;9453;50.294;18.644;2024-03-23T09:51:35;11.52;;;4.53;;
18647;SDS011;9453;50.294;18.644;2024-03-23T09:54:04;10.63;;;5.47;;
18647;SDS011;9453;50.294;18.644;2024-03-23T09:56:29;11.63;;;4.72;;
18647;SDS011;9453;50.294;18.644;2024-03-23T09:59:00;11.63;;;5.55;;
18647;SDS011;9453;50.294;18.644;2024-03-23T10:01:27;15.55;;;7.72;;
18647;SDS011;9453;50.294;18.644;2024-03-23T10:03:55;11.02;;;5.35;;
18647;SDS011;9453;50.294;18.644;2024-03-23T10:06:21;10.57;;;5.10;;
18647;SDS011;9453;50.294;18.644;2024-03-23T10:08:49;16.00;;;7.10;;
18647;SDS011;9453;50.294;18.644;2024-03-23T10:11:17;10.75;;;5.32;;
18647;SDS011;9453;50.294;18.644;2024-03-23T10:13:46;6.18;;;4.15;;
18647;SDS011;9453;50.294;18.644;2024-03-23T10:16:12;10.20;;;4.78;;
18647;SDS011;9453;50.294;18.644;2024-03-23T10:18:48;10.98;;;4.90;;
18647;SDS011;9453;50.294;18.644;2024-03-23T10:21:14;9.23;;;4.18;;
18647;SDS011;9453;50.294;18.644;2024-03-23T10:23:43;10.43;;;4.28;;
18647;SDS011;9453;50.294;18.644;2024-03-23T10:26:13;9.55;;;4.88;;
18647;SDS011;9453;50.294;18.644;2024-03-23T10:28:52;12.18;;;4.90;;
18647;SDS011;9453;50.294;18.644;2024-03-23T10:31:18;7.95;;;4.50;;
18647;SDS011;9453;50.294;18.644;2024-03-23T10:33:46;9.02;;;4.07;;
18647;SDS011;9453;50.294;18.644;2024-03-23T10:36:12;10.90;;;4.68;;
18647;SDS011;9453;50.294;18.644;2024-03-23T10:38:40;8.98;;;3.97;;
18647;SDS011;9453;50.294;18.644;2024-03-23T10:41:06;9.15;;;3.80;;
18647;SDS011;9453;50.294;18.644;2024-03-23T10:43:34;11.40;;;5.05;;
18647;SDS011;9453;50.294;18.644;2024-03-23T10:46:04;10.68;;;5.32;;
18647;SDS011;9453;50.294;18.644;2024-03-23T10:48:32;10.40;;;3.72;;
18647;SDS011;9453;50.294;18.644;2024-03-23T10:50:58;7.10;;;4.00;;
18647;SDS011;9453;50.294;18.644;2024-03-23T10:53:25;7.85;;;4.10;;
18647;SDS011;9453;50.294;18.644;2024-03-23T10:55:52;6.72;;;3.78;;
18647;SDS011;9453;50.294;18.644;2024-03-23T10:58:21;6.75;;;3.70;;
18647;SDS011;9453;50.294;18.644;2024-03-23T11:00:51;7.70;;;3.85;;
18647;SDS011;9453;50.294;18.644;2024-03-23T11:03:34;10.57;;;3.83;;
18647;SDS011;9453;50.294;18.644;2024-03-23T11:06:01;5.28;;;3.15;;
18647;SDS011;9453;50.294;18.644;2024-03-23T11:08:30;7.15;;;3.22;;
18647;SDS011;9453;50.294;18.644;2024-03-23T11:11:11;6.28;;;3.00;;
18647;SDS011;9453;50.294;18.644;2024-03-23T11:13:39;8.40;;;3.75;;
18647;SDS011;9453;50.294;18.644;2024-03-23T11:16:12;5.55;;;3.45;;
18647;SDS011;9453;50.294;18.644;2024-03-23T11:18:41;7.53;;;3.50;;
18647;SDS011;9453;50.294;18.644;2024-03-23T11:21:09;6.25;;;3.10;;
18647;SDS011;9453;50.294;18.644;2024-03-23T11:23:37;5.88;;;3.20;;
18647;SDS011;9453;50.294;18.644;2024-03-23T11:26:06;4.95;;;2.80;;
18647;SDS011;9453;50.294;18.644;2024-03-23T11:28:33;8.45;;;3.42;;
18647;SDS011;9453;50.294;18.644;2024-03-23T11:30:59;5.30;;;2.67;;
18647;SDS011;9453;50.294;18.644;2024-03-23T11:33:26;10.43;;;3.58;;
18647;SDS011;9453;50.294;18.644;2024-03-23T11:35:55;4.72;;;2.42;;
18647;SDS011;9453;50.294;18.644;2024-03-23T11:38:22;5.68;;;2.25;;
18647;SDS011;9453;50.294;18.644;2024-03-23T11:40:48;6.30;;;2.30;;
18647;SDS011;9453;50.294;18.644;2024-03-23T11:43:17;10.50;;;3.20;;
18647;SDS011;9453;50.294;18.644;2024-03-23T11:45:44;8.85;;;3.30;;
18647;SDS011;9453;50.294;18.644;2024-03-23T11:48:12;6.15;;;3.47;;
18647;SDS011;9453;50.294;18.644;2024-03-23T11:50:39;5.18;;;2.60;;
18647;SDS011;9453;50.294;18.644;2024-03-23T11:53:11;6.90;;;3.35;;
18647;SDS011;9453;50.294;18.644;2024-03-23T11:55:39;5.68;;;2.35;;
18647;SDS011;9453;50.294;18.644;2024-03-23T11:58:07;5.57;;;2.33;;
18647;SDS011;9453;50.294;18.644;2024-03-23T12:00:34;6.18;;;2.47;;
18647;SDS011;9453;50.294;18.644;2024-03-23T12:03:01;4.68;;;2.47;;
18647;SDS011;9453;50.294;18.644;2024-03-23T12:05:30;6.20;;;2.33;;
18647;SDS011;9453;50.294;18.644;2024-03-23T12:08:18;5.15;;;2.90;;
18647;SDS011;9453;50.294;18.644;2024-03-23T12:10:47;7.78;;;2.83;;
18647;SDS011;9453;50.294;18.644;2024-03-23T12:13:16;6.18;;;1.70;;
18647;SDS011;9453;50.294;18.644;2024-03-23T12:15:42;4.10;;;1.85;;
18647;SDS011;9453;50.294;18.644;2024-03-23T12:18:10;4.53;;;2.60;;
18647;SDS011;9453;50.294;18.644;2024-03-23T12:20:37;2.47;;;1.38;;
18647;SDS011;9453;50.294;18.644;2024-03-23T12:23:05;5.57;;;2.00;;
18647;SDS011;9453;50.294;18.644;2024-03-23T12:25:33;4.47;;;1.80;;
18647;SDS011;9453;50.294;18.644;2024-03-23T12:28:01;6.32;;;2.00;;
18647;SDS011;9453;50.294;18.644;2024-03-23T12:30:28;5.25;;;2.00;;
18647;SDS011;9453;50.294;18.644;2024-03-23T12:32:55;4.22;;;2.20;;
18647;SDS011;9453;50.294;18.644;2024-03-23T12:35:22;3.45;;;1.90;;
18647;SDS011;9453;50.294;18.644;2024-03-23T12:37:49;3.45;;;1.85;;
18647;SDS011;9453;50.294;18.644;2024-03-23T12:40:15;5.30;;;2.30;;
18647;SDS011;9453;50.294;18.644;2024-03-23T12:42:43;3.45;;;1.80;;
18647;SDS011;9453;50.294;18.644;2024-03-23T12:45:09;3.88;;;2.08;;
18647;SDS011;9453;50.294;18.644;2024-03-23T12:47:36;4.47;;;2.15;;
18647;SDS011;9453;50.294;18.644;2024-03-23T12:50:02;5.47;;;2.00;;
18647;SDS011;9453;50.294;18.644;2024-03-23T12:52:31;4.63;;;2.33;;
18647;SDS011;9453;50.294;18.644;2024-03-23T12:54:57;4.05;;;2.30;;
18647;SDS011;9453;50.294;18.644;2024-03-23T12:57:24;4.80;;;2.28;;
18647;SDS011;9453;50.294;18.644;2024-03-23T12:59:52;4.97;;;1.60;;
18647;SDS011;9453;50.294;18.644;2024-03-23T13:02:20;4.07;;;1.98;;
18647;SDS011;9453;50.294;18.644;2024-03-23T13:04:46;3.63;;;1.90;;
18647;SDS011;9453;50.294;18.644;2024-03-23T13:07:15;5.07;;;1.80;;
18647;SDS011;9453;50.294;18.644;2024-03-23T13:09:41;5.82;;;2.05;;
18647;SDS011;9453;50.294;18.644;2024-03-23T13:12:08;5.60;;;1.52;;
18647;SDS011;9453;50.294;18.644;2024-03-23T13:14:35;3.92;;;2.00;;
18647;SDS011;9453;50.294;18.644;2024-03-23T13:17:03;4.35;;;2.00;;
18647;SDS011;9453;50.294;18.644;2024-03-23T13:19:30;4.15;;;2.30;;
18647;SDS011;9453;50.294;18.644;2024-03-23T13:21:57;3.65;;;2.10;;
18647;SDS011;9453;50.294;18.644;2024-03-23T13:24:23;20.65;;;2.33;;
18647;SDS011;9453;50.294;18.644;2024-03-23T13:26:50;7.68;;;1.40;;
18647;SDS011;9453;50.294;18.644;2024-03-23T13:29:17;18.05;;;1.98;;
18647;SDS011;9453;50.294;18.644;2024-03-23T13:31:44;11.27;;;1.55;;
18647;SDS011;9453;50.294;18.644;2024-03-23T13:34:12;4.88;;;1.05;;
18647;SDS011;9453;50.294;18.644;2024-03-23T13:36:40;5.93;;;1.47;;
18647;SDS011;9453;50.294;18.644;2024-03-23T13:39:06;5.37;;;0.83;;
18647;SDS011;9453;50.294;18.644;2024-03-23T13:41:36;3.67;;;1.07;;
18647;SDS011;9453;50.294;18.644;2024-03-23T13:44:05;3.97;;;1.00;;
18647;SDS011;9453;50.294;18.644;2024-03-23T13:46:33;5.80;;;1.47;;
18647;SDS011;9453;50.294;18.644;2024-03-23T13:48:59;3.73;;;1.00;;
18647;SDS011;9453;50.294;18.644;2024-03-23T13:51:27;1.53;;;1.00;;
18647;SDS011;9453;50.294;18.644;2024-03-23T13:53:53;3.53;;;1.20;;
18647;SDS011;9453;50.294;18.644;2024-03-23T13:56:21;5.73;;;1.73;;
18647;SDS011;9453;50.294;18.644;2024-03-23T13:58:48;3.37;;;1.87;;
18647;SDS011;9453;50.294;18.644;2024-03-23T14:01:15;3.17;;;1.30;;
18647;SDS011;9453;50.294;18.644;2024-03-23T14:03:42;3.50;;;1.33;;
18647;SDS011;9453;50.294;18.644;2024-03-23T14:06:09;2.83;;;1.23;;
18647;SDS011;9453;50.294;18.644;2024-03-23T14:08:37;7.87;;;1.87;;
18647;SDS011;9453;50.294;18.644;2024-03-23T14:11:05;4.80;;;1.80;;
18647;SDS011;9453;50.294;18.644;2024-03-23T14:13:31;7.77;;;2.83;;
18647;SDS011;9453;50.294;18.644;2024-03-23T14:15:58;7.10;;;2.03;;
18647;SDS011;9453;50.294;18.644;2024-03-23T14:18:25;4.53;;;2.10;;
18647;SDS011;9453;50.294;18.644;2024-03-23T14:20:52;5.27;;;2.63;;
18647;SDS011;9453;50.294;18.644;2024-03-23T14:23:23;6.80;;;3.00;;
18647;SDS011;9453;50.294;18.644;2024-03-23T14:25:56;4.33;;;1.80;;
18647;SDS011;9453;50.294;18.644;2024-03-23T14:28:23;6.33;;;2.10;;
18647;SDS011;9453;50.294;18.644;2024-03-23T14:30:48;6.23;;;2.60;;
18647;SDS011;9453;50.294;18.644;2024-03-23T14:33:16;9.03;;;1.97;;
18647;SDS011;9453;50.294;18.644;2024-03-23T14:35:42;4.70;;;2.17;;
18647;SDS011;9453;50.294;18.644;2024-03-23T14:38:11;3.03;;;1.77;;
18647;SDS011;9453;50.294;18.644;2024-03-23T14:40:37;4.87;;;2.10;;
18647;SDS011;9453;50.294;18.644;2024-03-23T14:43:05;2.30;;;1.60;;
18647;SDS011;9453;50.294;18.644;2024-03-23T14:45:31;1.80;;;1.00;;
18647;SDS011;9453;50.294;18.644;2024-03-23T14:47:58;2.13;;;1.40;;
18647;SDS011;9453;50.294;18.644;2024-03-23T14:50:25;5.10;;;1.57;;
18647;SDS011;9453;50.294;18.644;2024-03-23T14:52:52;1.90;;;1.30;;
18647;SDS011;9453;50.294;18.644;2024-03-23T14:55:18;3.90;;;1.47;;
18647;SDS011;9453;50.294;18.644;2024-03-23T14:57:45;4.87;;;2.03;;
18647;SDS011;9453;50.294;18.644;2024-03-23T15:00:13;5.20;;;2.37;;
18647;SDS011;9453;50.294;18.644;2024-03-23T15:02:41;6.13;;;3.10;;
18647;SDS011;9453;50.294;18.644;2024-03-23T15:05:07;7.23;;;3.50;;
18647;SDS011;9453;50.294;18.644;2024-03-23T15:07:35;12.07;;;4.20;;
18647;SDS011;9453;50.294;18.644;2024-03-23T15:10:02;6.53;;;4.20;;
18647;SDS011;9453;50.294;18.644;2024-03-23T15:12:30;8.77;;;3.23;;
18647;SDS011;9453;50.294;18.644;2024-03-23T15:14:58;6.17;;;3.30;;
18647;SDS011;9453;50.294;18.644;2024-03-23T15:17:26;5.67;;;2.60;;
18647;SDS011;9453;50.294;18.644;2024-03-23T15:19:52;3.47;;;1.90;;
18647;SDS011;9453;50.294;18.644;2024-03-23T15:22:19;7.97;;;2.90;;
18647;SDS011;9453;50.294;18.644;2024-03-23T15:24:47;4.67;;;2.30;;
18647;SDS011;9453;50.294;18.644;2024-03-23T15:27:14;6.07;;;2.40;;
18647;SDS011;9453;50.294;18.644;2024-03-23T15:29:40;4.67;;;2.50;;
18647;SDS011;9453;50.294;18.644;2024-03-23T15:32:10;7.13;;;3.10;;
18647;SDS011;9453;50.294;18.644;2024-03-23T15:34:38;9.13;;;3.87;;
18647;SDS011;9453;50.294;18.644;2024-03-23T15:37:05;10.83;;;3.73;;
18647;SDS011;9453;50.294;18.644;2024-03-23T15:39:30;6.50;;;3.10;;
18647;SDS011;9453;50.294;18.644;2024-03-23T15:41:57;6.73;;;3.50;;
18647;SDS011;9453;50.294;18.644;2024-03-23T15:44:24;6.10;;;3.30;;
18647;SDS011;9453;50.294;18.644;2024-03-23T15:46:51;5.27;;;2.90;;
18647;SDS011;9453;50.294;18.644;2024-03-23T15:49:17;4.70;;;2.60;;
18647;SDS011;9453;50.294;18.644;2024-03-23T15:51:45;6.50;;;2.80;;
18647;SDS011;9453;50.294;18.644;2024-03-23T15:54:11;5.13;;;3.03;;
18647;SDS011;9453;50.294;18.644;2024-03-23T15:56:38;6.90;;;3.20;;
18647;SDS011;9453;50.294;18.644;2024-03-23T15:59:04;6.27;;;3.17;;
18647;SDS011;9453;50.294;18.644;2024-03-23T16:01:31;13.87;;;5.10;;
18647;SDS011;9453;50.294;18.644;2024-03-23T16:03:58;11.77;;;4.77;;
18647;SDS011;9453;50.294;18.644;2024-03-23T16:06:26;8.33;;;4.60;;
18647;SDS011;9453;50.294;18.644;2024-03-23T16:08:53;8.47;;;4.63;;
18647;SDS011;9453;50.294;18.644;2024-03-23T16:11:20;8.97;;;3.73;;
18647;SDS011;9453;50.294;18.644;2024-03-23T16:13:47;10.73;;;3.80;;
18647;SDS011;9453;50.294;18.644;2024-03-23T16:16:14;6.37;;;3.57;;
18647;SDS011;9453;50.294;18.644;2024-03-23T16:18:42;5.73;;;3.13;;
18647;SDS011;9453;50.294;18.644;2024-03-23T16:21:10;6.53;;;2.80;;
18647;SDS011;9453;50.294;18.644;2024-03-23T16:23:36;5.47;;;3.67;;
18647;SDS011;9453;50.294;18.644;2024-03-23T16:26:05;4.97;;;2.77;;
18647;SDS011;9453;50.294;18.644;2024-03-23T16:28:33;5.87;;;2.97;;
18647;SDS011;9453;50.294;18.644;2024-03-23T16:31:01;5.57;;;2.97;;
18647;SDS011;9453;50.294;18.644;2024-03-23T16:33:29;10.80;;;3.20;;
18647;SDS011;9453;50.294;18.644;2024-03-23T16:35:57;6.67;;;2.40;;
18647;SDS011;9453;50.294;18.644;2024-03-23T16:38:24;4.57;;;2.03;;
18647;SDS011;9453;50.294;18.644;2024-03-23T16:40:54;4.57;;;2.30;;
18647;SDS011;9453;50.294;18.644;2024-03-23T16:43:25;5.30;;;2.43;;
18647;SDS011;9453;50.294;18.644;2024-03-23T16:45:54;4.17;;;2.33;;
18647;SDS011;9453;50.294;18.644;2024-03-23T16:48:22;7.40;;;2.93;;
18647;SDS011;9453;50.294;18.644;2024-03-23T16:50:49;5.50;;;3.10;;
18647;SDS011;9453;50.294;18.644;2024-03-23T16:53:16;6.70;;;3.00;;
18647;SDS011;9453;50.294;18.644;2024-03-23T16:55:43;5.77;;;3.20;;
18647;SDS011;9453;50.294;18.644;2024-03-23T16:58:09;5.50;;;3.47;;
18647;SDS011;9453;50.294;18.644;2024-03-23T17:00:37;6.13;;;3.20;;
18647;SDS011;9453;50.294;18.644;2024-03-23T17:03:03;5.40;;;2.90;;
18647;SDS011;9453;50.294;18.644;2024-03-23T17:05:37;6.33;;;3.50;;
18647;SDS011;9453;50.294;18.644;2024-03-23T17:08:03;7.63;;;4.27;;
18647;SDS011;9453;50.294;18.644;2024-03-23T17:10:31;9.67;;;3.77;;
18647;SDS011;9453;50.294;18.644;2024-03-23T17:12:57;8.87;;;4.67;;
18647;SDS011;9453;50.294;18.644;2024-03-23T17:15:25;7.63;;;4.40;;
18647;SDS011;9453;50.294;18.644;2024-03-23T17:17:55;8.53;;;4.53;;
18647;SDS011;9453;50.294;18.644;2024-03-23T17:20:22;10.43;;;4.47;;
18647;SDS011;9453;50.294;18.644;2024-03-23T17:22:54;9.00;;;5.03;;
18647;SDS011;9453;50.294;18.644;2024-03-23T17:25:21;7.60;;;4.40;;
18647;SDS011;9453;50.294;18.644;2024-03-23T17:27:47;8.40;;;4.50;;
18647;SDS011;9453;50.294;18.644;2024-03-23T17:30:15;9.27;;;4.40;;
18647;SDS011;9453;50.294;18.644;2024-03-23T17:32:41;10.03;;;3.67;;
18647;SDS011;9453;50.294;18.644;2024-03-23T17:35:11;6.43;;;4.13;;
18647;SDS011;9453;50.294;18.644;2024-03-23T17:37:37;6.63;;;4.03;;
18647;SDS011;9453;50.294;18.644;2024-03-23T17:40:05;8.83;;;4.10;;
18647;SDS011;9453;50.294;18.644;2024-03-23T17:42:33;10.97;;;4.20;;
18647;SDS011;9453;50.294;18.644;2024-03-23T17:45:01;7.47;;;3.97;;
18647;SDS011;9453;50.294;18.644;2024-03-23T17:47:27;7.33;;;4.10;;
18647;SDS011;9453;50.294;18.644;2024-03-23T17:50:00;8.67;;;4.13;;
18647;SDS011;9453;50.294;18.644;2024-03-23T17:52:28;7.03;;;4.23;;
18647;SDS011;9453;50.294;18.644;2024-03-23T17:54:55;9.43;;;4.30;;
18647;SDS011;9453;50.294;18.644;2024-03-23T17:57:21;8.67;;;4.77;;
18647;SDS011;9453;50.294;18.644;2024-03-23T17:59:48;6.73;;;4.17;;
18647;SDS011;9453;50.294;18.644;2024-03-23T18:02:15;11.80;;;4.93;;
18647;SDS011;9453;50.294;18.644;2024-03-23T18:04:42;9.23;;;4.67;;
18647;SDS011;9453;50.294;18.644;2024-03-23T18:07:08;10.83;;;5.50;;
18647;SDS011;9453;50.294;18.644;2024-03-23T18:09:37;8.90;;;5.20;;
18647;SDS011;9453;50.294;18.644;2024-03-23T18:12:03;9.27;;;5.23;;
18647;SDS011;9453;50.294;18.644;2024-03-23T18:14:31;9.37;;;4.93;;
18647;SDS011;9453;50.294;18.644;2024-03-23T18:16:57;9.27;;;5.27;;
18647;SDS011;9453;50.294;18.644;2024-03-23T18:19:24;9.40;;;5.07;;
18647;SDS011;9453;50.294;18.644;2024-03-23T18:21:50;10.13;;;5.43;;
18647;SDS011;9453;50.294;18.644;2024-03-23T18:24:17;8.83;;;4.90;;
18647;SDS011;9453;50.294;18.644;2024-03-23T18:26:45;6.67;;;4.80;;
18647;SDS011;9453;50.294;18.644;2024-03-23T18:29:11;9.87;;;5.10;;
18647;SDS011;9453;50.294;18.644;2024-03-23T18:31:38;9.17;;;4.80;;
18647;SDS011;9453;50.294;18.644;2024-03-23T18:34:05;8.27;;;4.40;;
18647;SDS011;9453;50.294;18.644;2024-03-23T18:36:33;8.47;;;4.57;;
18647;SDS011;9453;50.294;18.644;2024-03-23T18:38:59;10.80;;;4.17;;
18647;SDS011;9453;50.294;18.644;2024-03-23T18:41:28;6.73;;;3.87;;
18647;SDS011;9453;50.294;18.644;2024-03-23T18:43:56;5.03;;;3.00;;
18647;SDS011;9453;50.294;18.644;2024-03-23T18:46:24;7.83;;;3.43;;
18647;SDS011;9453;50.294;18.644;2024-03-23T18:48:50;8.07;;;3.37;;
18647;SDS011;9453;50.294;18.644;2024-03-23T18:51:17;6.27;;;3.53;;
18647;SDS011;9453;50.294;18.644;2024-03-23T18:53:45;6.47;;;3.53;;
18647;SDS011;9453;50.294;18.644;2024-03-23T18:56:12;6.60;;;3.17;;
18647;SDS011;9453;50.294;18.644;2024-03-23T18:58:38;4.57;;;2.50;;
18647;SDS011;9453;50.294;18.644;2024-03-23T19:01:06;4.53;;;2.53;;
18647;SDS011;9453;50.294;18.644;2024-03-23T19:03:33;4.03;;;2.47;;
18647;SDS011;9453;50.294;18.644;2024-03-23T19:06:01;4.63;;;2.30;;
18647;SDS011;9453;50.294;18.644;2024-03-23T19:08:27;4.90;;;2.67;;
18647;SDS011;9453;50.294;18.644;2024-03-23T19:10:56;4.23;;;2.23;;
18647;SDS011;9453;50.294;18.644;2024-03-23T19:13:23;5.37;;;2.33;;
18647;SDS011;9453;50.294;18.644;2024-03-23T19:15:51;4.43;;;2.30;;
18647;SDS011;9453;50.294;18.644;2024-03-23T19:18:19;3.57;;;1.93;;
18647;SDS011;9453;50.294;18.644;2024-03-23T19:20:51;3.43;;;1.90;;
18647;SDS011;9453;50.294;18.644;2024-03-23T19:23:17;2.27;;;1.40;;
18647;SDS011;9453;50.294;18.644;2024-03-23T19:25:50;2.57;;;1.73;;
18647;SDS011;9453;50.294;18.644;2024-03-23T19:28:17;3.10;;;1.80;;
18647;SDS011;9453;50.294;18.644;2024-03-23T19:30:44;3.60;;;1.60;;
18647;SDS011;9453;50.294;18.644;2024-03-23T19:33:10;2.50;;;1.57;;
18647;SDS011;9453;50.294;18.644;2024-03-23T19:35:38;4.40;;;1.90;;
18647;SDS011;9453;50.294;18.644;2024-03-23T19:38:08;3.83;;;1.90;;
18647;SDS011;9453;50.294;18.644;2024-03-23T19:40:35;2.90;;;1.40;;
18647;SDS011;9453;50.294;18.644;2024-03-23T19:43:01;5.90;;;2.43;;
18647;SDS011;9453;50.294;18.644;2024-03-23T19:45:29;5.73;;;1.83;;